createdAt,value
2023-05-14T00:01:56.649Z,11.43
2023-05-14T00:04:24.149Z,11.10
2023-05-14T00:06:51.431Z,10.90
2023-05-14T00:09:19.738Z,10.65
2023-05-14T00:11:46.996Z,10.90
2023-05-14T00:14:14.218Z,10.75
2023-05-14T00:16:41.376Z,10.98
2023-05-14T00:19:08.360Z,10.60
2023-05-14T00:21:35.277Z,11.20
2023-05-14T00:24:02.527Z,10.90
2023-05-14T00:26:29.774Z,11.52
2023-05-14T00:28:56.609Z,10.93
2023-05-14T00:31:23.838Z,11.60
2023-05-14T00:33:51.081Z,12.20
2023-05-14T00:36:18.289Z,11.30
2023-05-14T00:38:45.650Z,11.38
2023-05-14T00:41:12.549Z,11.43
2023-05-14T00:43:39.544Z,11.45
2023-05-14T00:46:06.435Z,10.60
2023-05-14T00:48:34.285Z,11.30
2023-05-14T00:51:01.562Z,12.10
2023-05-14T00:53:28.830Z,11.75
2023-05-14T00:55:56.169Z,11.30
2023-05-14T00:58:23.485Z,10.98
2023-05-14T01:00:50.402Z,10.97
2023-05-14T01:03:17.424Z,11.32
2023-05-14T01:05:44.855Z,11.43
2023-05-14T01:08:41.004Z,11.23
2023-05-14T01:11:17.372Z,10.27
2023-05-14T01:14:08.935Z,10.97
2023-05-14T01:16:37.374Z,11.25
2023-05-14T01:19:07.805Z,11.52
2023-05-14T01:21:38.609Z,10.68
2023-05-14T01:24:06.033Z,10.77
2023-05-14T01:26:33.859Z,11.17
2023-05-14T01:29:15.864Z,11.52
2023-05-14T01:31:45.504Z,11.25
2023-05-14T01:34:14.012Z,12.55
2023-05-14T01:36:42.103Z,10.85
2023-05-14T01:39:10.531Z,11.10
2023-05-14T01:41:39.465Z,10.73
2023-05-14T01:44:06.818Z,11.45
2023-05-14T01:46:34.046Z,11.60
2023-05-14T01:49:01.598Z,11.10
2023-05-14T01:51:28.714Z,12.27
2023-05-14T01:53:55.935Z,11.18
2023-05-14T01:56:25.746Z,11.93
2023-05-14T01:58:52.874Z,12.20
2023-05-14T02:01:20.213Z,12.43
2023-05-14T02:03:48.132Z,11.00
2023-05-14T02:06:15.334Z,11.75
2023-05-14T02:08:42.550Z,12.57
2023-05-14T02:11:09.746Z,11.68
2023-05-14T02:13:36.694Z,11.95
2023-05-14T02:16:04.075Z,12.00
2023-05-14T02:18:31.592Z,10.65
2023-05-14T02:20:58.510Z,12.73
2023-05-14T02:23:34.185Z,12.30
2023-05-14T02:26:09.566Z,12.43
2023-05-14T02:28:36.422Z,12.80
2023-05-14T02:31:03.802Z,12.88
2023-05-14T02:33:30.849Z,12.00
2023-05-14T02:35:58.140Z,12.10
2023-05-14T02:38:26.515Z,12.05
2023-05-14T02:40:53.498Z,11.90
2023-05-14T02:43:20.810Z,11.65
2023-05-14T02:45:48.064Z,11.63
2023-05-14T02:48:15.260Z,11.88
2023-05-14T02:50:42.497Z,11.88
2023-05-14T02:53:09.754Z,11.73
2023-05-14T02:55:37.408Z,12.38
2023-05-14T02:58:04.811Z,12.70
2023-05-14T03:00:32.153Z,11.60
2023-05-14T03:02:59.447Z,11.98
2023-05-14T03:05:27.284Z,11.57
2023-05-14T03:07:54.800Z,12.57
2023-05-14T03:10:22.017Z,11.95
2023-05-14T03:12:49.446Z,12.85
2023-05-14T03:15:16.637Z,12.90
2023-05-14T03:17:43.925Z,12.03
2023-05-14T03:20:12.273Z,12.02
2023-05-14T03:22:39.474Z,11.95
2023-05-14T03:25:06.608Z,12.77
2023-05-14T03:27:34.592Z,12.73
2023-05-14T03:30:01.454Z,13.03
2023-05-14T03:32:28.414Z,12.90
2023-05-14T03:34:55.766Z,12.25
2023-05-14T03:37:22.809Z,12.27
2023-05-14T03:39:50.024Z,12.43
2023-05-14T03:42:16.868Z,12.63
2023-05-14T03:44:44.199Z,12.45
2023-05-14T03:47:11.726Z,12.95
2023-05-14T03:49:38.988Z,13.50
2023-05-14T03:52:07.798Z,12.05
2023-05-14T03:54:35.795Z,13.13
2023-05-14T03:57:03.061Z,12.80
2023-05-14T03:59:30.512Z,12.20
2023-05-14T04:01:57.319Z,12.82
2023-05-14T04:04:26.346Z,12.05
2023-05-14T04:06:53.706Z,12.03
2023-05-14T04:09:20.953Z,11.75
2023-05-14T04:11:48.154Z,12.68
2023-05-14T04:14:15.055Z,11.57
2023-05-14T04:16:45.715Z,12.00
2023-05-14T04:19:13.090Z,12.50
2023-05-14T04:21:40.485Z,12.32
2023-05-14T04:24:07.688Z,12.02
2023-05-14T04:26:35.349Z,12.40
2023-05-14T04:29:03.421Z,12.98
2023-05-14T04:31:31.609Z,11.93
2023-05-14T04:33:58.604Z,12.27
2023-05-14T04:36:25.866Z,12.18
2023-05-14T04:38:52.709Z,10.55
2023-05-14T04:41:19.946Z,12.02
2023-05-14T04:43:49.646Z,12.73
2023-05-14T04:46:16.616Z,11.48
2023-05-14T04:48:43.978Z,12.25
2023-05-14T04:51:11.197Z,12.00
2023-05-14T04:53:38.389Z,11.40
2023-05-14T04:56:05.650Z,11.27
2023-05-14T04:58:34.636Z,11.35
2023-05-14T05:01:02.810Z,11.57
2023-05-14T05:03:30.145Z,11.27
2023-05-14T05:05:57.069Z,11.68
2023-05-14T05:08:24.214Z,11.23
2023-05-14T05:10:51.505Z,10.27
2023-05-14T05:13:18.774Z,10.70
2023-05-14T05:15:46.083Z,11.38
2023-05-14T05:18:13.158Z,10.45
2023-05-14T05:20:40.446Z,10.30
2023-05-14T05:23:07.725Z,10.23
2023-05-14T05:25:34.949Z,10.40
2023-05-14T05:28:02.224Z,9.50
2023-05-14T05:30:30.187Z,10.10
2023-05-14T05:32:57.688Z,8.97
2023-05-14T05:35:24.653Z,9.23
2023-05-14T05:37:51.834Z,10.82
2023-05-14T05:40:19.108Z,8.75
2023-05-14T05:42:45.970Z,9.95
2023-05-14T05:45:13.246Z,8.87
2023-05-14T05:47:40.125Z,9.05
2023-05-14T05:50:07.695Z,10.13
2023-05-14T05:52:34.969Z,8.63
2023-05-14T05:55:02.224Z,9.25
2023-05-14T05:57:29.783Z,8.73
2023-05-14T05:59:56.609Z,8.57
2023-05-14T06:02:25.029Z,9.15
2023-05-14T06:04:53.217Z,8.32
2023-05-14T06:07:20.478Z,8.27
2023-05-14T06:09:47.762Z,8.83
2023-05-14T06:12:15.014Z,8.88
2023-05-14T06:14:42.234Z,8.75
2023-05-14T06:17:09.466Z,8.13
2023-05-14T06:19:36.783Z,8.02
2023-05-14T06:22:04.093Z,8.00
2023-05-14T06:24:30.994Z,8.52
2023-05-14T06:26:57.924Z,8.77
2023-05-14T06:29:25.662Z,7.65
2023-05-14T06:31:53.809Z,6.68
2023-05-14T06:34:21.126Z,7.43
2023-05-14T06:36:48.417Z,7.78
2023-05-14T06:39:15.617Z,7.18
2023-05-14T06:41:42.553Z,7.25
2023-05-14T06:44:14.905Z,7.38
2023-05-14T06:46:42.121Z,7.00
2023-05-14T06:49:09.404Z,7.00
2023-05-14T06:51:36.807Z,7.78
2023-05-14T06:54:03.802Z,6.93
2023-05-14T06:56:30.660Z,7.28
2023-05-14T06:58:57.478Z,7.17
2023-05-14T07:01:24.745Z,7.60
2023-05-14T07:03:52.055Z,7.38
2023-05-14T07:06:19.395Z,7.13
2023-05-14T07:08:46.293Z,7.20
2023-05-14T07:11:13.654Z,6.60
2023-05-14T07:13:41.102Z,7.57
2023-05-14T07:16:11.528Z,7.03
2023-05-14T07:18:38.879Z,7.82
2023-05-14T07:21:06.630Z,7.43
2023-05-14T07:23:36.227Z,6.10
2023-05-14T07:26:05.067Z,7.00
2023-05-14T07:28:32.518Z,7.68
2023-05-14T07:30:59.643Z,8.88
2023-05-14T07:33:27.081Z,8.00
2023-05-14T07:35:54.387Z,8.97
2023-05-14T07:38:21.332Z,8.02
2023-05-14T07:40:48.559Z,8.80
2023-05-14T07:43:15.862Z,8.38
2023-05-14T07:45:42.908Z,8.68
2023-05-14T07:48:10.196Z,9.17
2023-05-14T07:50:37.980Z,9.15
2023-05-14T07:53:04.966Z,9.85
2023-05-14T07:55:31.869Z,9.27
2023-05-14T07:57:59.199Z,9.13
2023-05-14T08:00:26.632Z,8.30
2023-05-14T08:02:55.035Z,8.77
2023-05-14T08:05:22.449Z,9.30
2023-05-14T08:07:49.672Z,8.30
2023-05-14T08:10:16.906Z,7.82
2023-05-14T08:12:44.284Z,7.60
2023-05-14T08:15:11.303Z,7.90
2023-05-14T08:17:38.666Z,8.20
2023-05-14T08:20:06.926Z,7.05
2023-05-14T08:22:34.183Z,7.45
2023-05-14T08:25:03.465Z,7.80
2023-05-14T08:27:30.707Z,7.43
2023-05-14T08:29:57.889Z,7.10
2023-05-14T08:32:24.766Z,7.13
2023-05-14T08:34:52.314Z,6.72
2023-05-14T08:37:19.823Z,7.33
2023-05-14T08:39:47.108Z,6.90
2023-05-14T08:42:15.620Z,7.35
2023-05-14T08:44:50.066Z,6.63
2023-05-14T08:47:21.404Z,6.40
2023-05-14T08:49:58.072Z,6.40
2023-05-14T08:52:25.578Z,6.60
2023-05-14T08:54:53.987Z,6.70
2023-05-14T08:57:24.871Z,5.75
2023-05-14T08:59:52.415Z,6.35
2023-05-14T09:02:24.350Z,6.53
2023-05-14T09:04:59.457Z,6.20
2023-05-14T09:07:27.030Z,6.63
2023-05-14T09:09:54.641Z,6.00
2023-05-14T09:12:22.223Z,6.00
2023-05-14T09:14:50.570Z,5.80
2023-05-14T09:17:18.716Z,6.00
2023-05-14T09:19:49.599Z,5.80
2023-05-14T09:22:18.176Z,6.15
2023-05-14T09:24:45.758Z,5.72
2023-05-14T09:27:21.898Z,6.23
2023-05-14T09:29:48.703Z,5.40
2023-05-14T09:32:15.682Z,5.78
2023-05-14T09:34:42.470Z,5.35
2023-05-14T09:37:09.999Z,4.80
2023-05-14T09:39:38.176Z,5.90
2023-05-14T09:42:05.495Z,5.90
2023-05-14T09:44:32.485Z,6.05
2023-05-14T09:46:59.474Z,6.07
2023-05-14T09:49:26.378Z,6.40
2023-05-14T09:51:53.620Z,5.83
2023-05-14T09:54:20.458Z,5.28
2023-05-14T09:56:47.293Z,5.50
2023-05-14T09:59:14.373Z,5.47
2023-05-14T10:01:43.994Z,5.53
2023-05-14T10:04:12.057Z,5.27
2023-05-14T10:06:39.897Z,5.40
2023-05-14T10:09:19.772Z,5.63
2023-05-14T10:11:52.718Z,5.75
2023-05-14T10:14:29.310Z,4.68
2023-05-14T10:17:00.925Z,5.17
2023-05-14T10:19:32.291Z,5.25
2023-05-14T10:22:07.532Z,5.30
2023-05-14T10:24:35.500Z,5.10
2023-05-14T10:27:02.748Z,5.40
2023-05-14T10:29:37.687Z,5.13
2023-05-14T10:32:06.914Z,5.22
2023-05-14T10:34:42.471Z,5.30
2023-05-14T10:37:15.940Z,4.70
2023-05-14T10:39:54.078Z,4.65
2023-05-14T10:42:29.029Z,4.80
2023-05-14T10:45:02.054Z,5.55
2023-05-14T10:47:29.594Z,4.80
2023-05-14T10:49:58.589Z,5.40
2023-05-14T10:52:26.454Z,5.78
2023-05-14T10:55:03.097Z,4.63
2023-05-14T10:57:33.548Z,5.40
2023-05-14T11:00:01.313Z,5.50
2023-05-14T11:02:34.358Z,5.05
2023-05-14T11:05:05.856Z,5.32
2023-05-14T11:07:35.292Z,4.83
2023-05-14T11:10:13.592Z,4.47
2023-05-14T11:12:44.051Z,5.80
2023-05-14T11:15:13.321Z,5.43
2023-05-14T11:17:42.107Z,5.15
2023-05-14T11:20:09.636Z,4.90
2023-05-14T11:22:38.219Z,4.93
2023-05-14T11:25:06.271Z,5.43
2023-05-14T11:27:39.179Z,4.57
2023-05-14T11:30:16.312Z,4.60
2023-05-14T11:32:46.068Z,5.67
2023-05-14T11:35:13.874Z,4.90
2023-05-14T11:37:40.857Z,4.57
2023-05-14T11:40:10.254Z,4.38
2023-05-14T11:42:38.654Z,4.25
2023-05-14T11:45:06.315Z,4.40
2023-05-14T11:47:33.353Z,4.28
2023-05-14T11:50:01.084Z,4.93
2023-05-14T11:52:27.983Z,4.70
2023-05-14T11:54:54.902Z,4.55
2023-05-14T11:57:22.870Z,4.37
2023-05-14T11:59:57.958Z,4.55
2023-05-14T12:02:29.070Z,4.72
2023-05-14T12:04:56.076Z,4.18
2023-05-14T12:07:22.938Z,5.10
2023-05-14T12:09:50.564Z,4.87
2023-05-14T12:12:22.080Z,4.50
2023-05-14T12:14:50.634Z,4.70
2023-05-14T12:17:22.492Z,6.22
2023-05-14T12:19:52.694Z,5.63
2023-05-14T12:22:22.058Z,4.80
2023-05-14T12:24:59.959Z,4.78
2023-05-14T12:27:29.550Z,4.47
2023-05-14T12:32:44.906Z,4.45
2023-05-14T12:35:11.918Z,4.57
2023-05-14T12:37:39.964Z,4.47
2023-05-14T12:40:10.219Z,5.30
2023-05-14T12:42:37.451Z,4.60
2023-05-14T12:45:07.771Z,4.57
2023-05-14T12:47:34.873Z,4.80
2023-05-14T12:50:02.129Z,4.70
2023-05-14T12:52:37.774Z,4.88
2023-05-14T12:55:07.129Z,4.20
2023-05-14T12:57:35.390Z,4.72
2023-05-14T13:00:06.613Z,4.70
2023-05-14T13:02:34.347Z,5.00
2023-05-14T13:05:11.102Z,4.93
2023-05-14T13:07:38.307Z,5.38
2023-05-14T13:10:05.860Z,4.93
2023-05-14T13:12:33.041Z,4.40
2023-05-14T13:14:59.987Z,4.70
2023-05-14T13:17:27.052Z,4.80
2023-05-14T13:19:53.899Z,4.80
2023-05-14T13:22:20.979Z,9.15
2023-05-14T13:24:47.903Z,4.83
2023-05-14T13:27:14.692Z,4.35
2023-05-14T13:29:41.640Z,4.70
2023-05-14T13:32:08.888Z,4.20
2023-05-14T13:34:36.272Z,4.88
2023-05-14T13:37:04.004Z,4.50
2023-05-14T13:39:30.970Z,4.50
2023-05-14T13:41:57.892Z,4.93
2023-05-14T13:44:24.839Z,4.95
2023-05-14T13:46:51.837Z,4.72
2023-05-14T13:49:18.798Z,4.43
2023-05-14T13:51:45.742Z,4.40
2023-05-14T13:54:12.605Z,4.95
2023-05-14T13:56:39.486Z,4.45
2023-05-14T13:59:06.439Z,4.85
2023-05-14T14:01:33.456Z,4.80
2023-05-14T14:04:00.411Z,4.53
2023-05-14T14:06:27.532Z,4.85
2023-05-14T14:08:54.525Z,4.53
2023-05-14T14:11:21.987Z,4.75
2023-05-14T14:13:48.985Z,4.43
2023-05-14T14:16:16.275Z,4.50
2023-05-14T14:18:43.609Z,5.03
2023-05-14T14:21:10.898Z,4.53
2023-05-14T14:23:37.832Z,5.22
2023-05-14T14:26:04.732Z,4.40
2023-05-14T14:28:31.658Z,4.80
2023-05-14T14:30:58.602Z,5.07
2023-05-14T14:33:25.765Z,5.10
2023-05-14T14:35:52.927Z,5.03
2023-05-14T14:38:20.138Z,4.80
2023-05-14T14:40:46.969Z,4.80
2023-05-14T14:43:13.900Z,5.60
2023-05-14T14:45:40.845Z,5.03
2023-05-14T14:48:26.367Z,5.30
2023-05-14T14:50:54.574Z,5.00
2023-05-14T14:53:22.625Z,4.32
2023-05-14T14:55:50.378Z,5.00
2023-05-14T14:58:18.882Z,4.60
2023-05-14T15:00:45.972Z,5.10
2023-05-14T15:03:15.008Z,5.83
2023-05-14T15:05:42.435Z,6.78
2023-05-14T15:08:09.595Z,6.35
2023-05-14T15:10:38.175Z,5.60
2023-05-14T15:13:06.261Z,4.47
2023-05-14T15:15:34.495Z,8.47
2023-05-14T15:18:02.042Z,4.90
2023-05-14T15:20:29.047Z,5.05
2023-05-14T15:22:56.570Z,5.07
2023-05-14T15:25:24.768Z,4.93
2023-05-14T15:27:51.990Z,7.60
2023-05-14T15:30:19.104Z,5.57
2023-05-14T15:32:46.734Z,5.13
2023-05-14T15:35:13.937Z,4.90
2023-05-14T15:37:42.839Z,4.30
2023-05-14T15:40:10.449Z,5.10
2023-05-14T15:42:38.832Z,5.50
2023-05-14T15:45:06.132Z,5.13
2023-05-14T15:47:33.544Z,5.55
2023-05-14T15:50:01.138Z,5.20
2023-05-14T15:52:28.392Z,5.30
2023-05-14T15:54:57.354Z,4.70
2023-05-14T15:57:24.167Z,5.20
2023-05-14T15:59:51.574Z,4.50
2023-05-14T16:02:18.498Z,4.50
2023-05-14T16:04:45.482Z,4.07
2023-05-14T16:07:13.313Z,4.65
2023-05-14T16:09:40.333Z,4.97
2023-05-14T16:12:08.217Z,5.53
2023-05-14T16:14:35.597Z,5.20
2023-05-14T16:17:02.502Z,4.10
2023-05-14T16:19:29.423Z,4.85
2023-05-14T16:21:56.212Z,5.65
2023-05-14T16:24:23.109Z,5.85
2023-05-14T16:26:49.965Z,4.63
2023-05-14T16:29:16.830Z,6.90
2023-05-14T16:31:43.911Z,5.68
2023-05-14T16:34:10.752Z,5.20
2023-05-14T16:36:38.022Z,7.63
2023-05-14T16:39:07.716Z,5.40
2023-05-14T16:41:35.884Z,4.57
2023-05-14T16:44:03.450Z,4.93
2023-05-14T16:46:31.263Z,13.00
2023-05-14T16:48:58.251Z,13.30
2023-05-14T16:51:25.626Z,14.52
2023-05-14T16:53:54.678Z,10.23
2023-05-14T16:56:22.666Z,9.90
2023-05-14T16:58:49.857Z,6.68
2023-05-14T17:01:16.936Z,6.00
2023-05-14T17:03:45.576Z,5.00
2023-05-14T17:06:12.474Z,6.20
2023-05-14T17:08:39.376Z,6.03
2023-05-14T17:11:06.574Z,5.03
2023-05-14T17:13:34.053Z,5.90
2023-05-14T17:16:01.789Z,5.90
2023-05-14T17:18:28.839Z,5.90
2023-05-14T17:20:56.076Z,7.35
2023-05-14T17:23:22.999Z,5.78
2023-05-14T17:25:50.091Z,6.25
2023-05-14T17:28:16.962Z,5.72
2023-05-14T17:30:43.904Z,6.20
2023-05-14T17:33:11.515Z,5.72
2023-05-14T17:35:38.948Z,6.53
2023-05-14T17:38:05.999Z,7.13
2023-05-14T17:40:34.151Z,7.05
2023-05-14T17:43:01.424Z,7.43
2023-05-14T17:45:32.193Z,7.43
2023-05-14T17:48:04.016Z,8.25
2023-05-14T17:50:31.336Z,6.65
2023-05-14T17:52:58.624Z,6.50
2023-05-14T17:55:25.920Z,6.20
2023-05-14T17:57:53.640Z,6.70
2023-05-14T18:00:20.953Z,6.45
2023-05-14T18:02:47.926Z,7.35
2023-05-14T18:05:15.402Z,8.32
2023-05-14T18:07:42.816Z,6.77
2023-05-14T18:10:10.144Z,6.97
2023-05-14T18:12:37.541Z,7.20
2023-05-14T18:15:04.908Z,7.25
2023-05-14T18:17:32.198Z,6.95
2023-05-14T18:20:00.178Z,7.40
2023-05-14T18:22:27.452Z,6.53
2023-05-14T18:24:54.706Z,7.10
2023-05-14T18:27:21.934Z,7.63
2023-05-14T18:29:48.878Z,7.00
2023-05-14T18:32:16.521Z,7.07
2023-05-14T18:34:43.759Z,6.90
2023-05-14T18:37:11.056Z,7.40
2023-05-14T18:39:38.285Z,6.70
2023-05-14T18:42:05.710Z,7.07
2023-05-14T18:44:32.932Z,7.50
2023-05-14T18:47:00.375Z,8.98
2023-05-14T18:49:27.701Z,8.35
2023-05-14T18:51:55.010Z,9.65
2023-05-14T18:54:22.089Z,8.82
2023-05-14T18:56:49.335Z,6.90
2023-05-14T18:59:16.656Z,8.90
2023-05-14T19:01:44.013Z,8.13
2023-05-14T19:04:11.458Z,10.10
2023-05-14T19:06:40.667Z,8.50
2023-05-14T19:09:07.978Z,8.37
2023-05-14T19:11:35.247Z,7.80
2023-05-14T19:14:02.135Z,9.35
2023-05-14T19:16:29.754Z,7.15
2023-05-14T19:18:57.202Z,8.95
2023-05-14T19:21:24.406Z,7.10
2023-05-14T19:23:51.641Z,7.07
2023-05-14T19:26:18.866Z,7.70
2023-05-14T19:28:46.102Z,7.32
2023-05-14T19:31:13.389Z,7.38
2023-05-14T19:33:40.321Z,6.57
2023-05-14T19:36:07.640Z,7.30
2023-05-14T19:38:34.576Z,7.18
2023-05-14T19:41:01.835Z,7.13
2023-05-14T19:43:29.241Z,7.90
2023-05-14T19:45:56.514Z,7.63
2023-05-14T19:48:23.793Z,8.50
2023-05-14T19:50:51.905Z,8.10
2023-05-14T19:53:19.112Z,8.25
2023-05-14T19:55:46.380Z,7.40
2023-05-14T19:58:13.967Z,8.17
2023-05-14T20:00:40.986Z,7.15
2023-05-14T20:03:08.314Z,7.30
2023-05-14T20:05:36.195Z,7.82
2023-05-14T20:08:06.523Z,8.55
2023-05-14T20:10:33.862Z,8.37
2023-05-14T20:13:01.102Z,9.55
2023-05-14T20:15:27.917Z,7.60
2023-05-14T20:17:54.926Z,9.25
2023-05-14T20:20:22.295Z,7.55
2023-05-14T20:22:49.629Z,7.63
2023-05-14T20:25:16.867Z,7.70
2023-05-14T20:27:44.169Z,8.20
2023-05-14T20:30:11.405Z,9.32
2023-05-14T20:32:38.723Z,9.85
2023-05-14T20:35:06.367Z,9.70
2023-05-14T20:37:33.956Z,8.43
2023-05-14T20:40:02.236Z,8.18
2023-05-14T20:42:29.176Z,8.15
2023-05-14T20:44:56.458Z,7.57
2023-05-14T20:47:26.551Z,9.03
2023-05-14T20:49:53.949Z,8.02
2023-05-14T20:52:21.371Z,7.85
2023-05-14T20:54:49.125Z,7.70
2023-05-14T20:57:16.457Z,7.63
2023-05-14T20:59:43.982Z,7.30
2023-05-14T21:02:10.985Z,7.65
2023-05-14T21:04:38.313Z,9.23
2023-05-14T21:07:06.125Z,7.70
2023-05-14T21:09:33.582Z,8.50
2023-05-14T21:12:00.922Z,8.03
2023-05-14T21:14:28.200Z,7.15
2023-05-14T21:16:55.120Z,8.88
2023-05-14T21:19:23.325Z,7.10
2023-05-14T21:21:50.643Z,7.70
2023-05-14T21:24:18.951Z,7.77
2023-05-14T21:26:46.325Z,7.15
2023-05-14T21:29:13.577Z,7.50
2023-05-14T21:31:41.070Z,7.25
2023-05-14T21:34:08.346Z,7.32
2023-05-14T21:36:35.269Z,7.20
2023-05-14T21:39:02.107Z,7.88
2023-05-14T21:41:29.385Z,7.65
2023-05-14T21:43:56.183Z,7.43
2023-05-14T21:46:23.494Z,7.55
2023-05-14T21:48:51.101Z,7.93
2023-05-14T21:51:18.054Z,7.60
2023-05-14T21:53:46.193Z,8.38
2023-05-14T21:56:13.416Z,7.03
2023-05-14T21:58:41.484Z,7.57
2023-05-14T22:01:09.052Z,7.83
2023-05-14T22:03:36.422Z,8.43
2023-05-14T22:06:03.519Z,9.95
2023-05-14T22:08:31.080Z,8.77
2023-05-14T22:10:57.968Z,8.40
2023-05-14T22:13:25.306Z,7.50
2023-05-14T22:16:01.431Z,8.15
2023-05-14T22:18:36.650Z,11.93
2023-05-14T22:21:04.083Z,10.18
2023-05-14T22:23:30.941Z,7.88
2023-05-14T22:25:57.879Z,8.67
2023-05-14T22:28:25.166Z,9.75
2023-05-14T22:30:52.447Z,7.68
2023-05-14T22:33:19.742Z,8.10
2023-05-14T22:35:47.170Z,8.13
2023-05-14T22:38:14.163Z,9.90
2023-05-14T22:40:41.434Z,9.20
2023-05-14T22:43:08.680Z,10.38
2023-05-14T22:45:35.514Z,11.00
2023-05-14T22:48:02.907Z,8.48
2023-05-14T22:50:30.425Z,10.33
2023-05-14T22:52:57.268Z,8.95
2023-05-14T22:55:24.656Z,13.07
2023-05-14T22:57:52.221Z,10.02
2023-05-14T23:00:19.707Z,9.23
2023-05-14T23:02:47.077Z,11.07
2023-05-14T23:05:14.401Z,10.38
2023-05-14T23:07:41.333Z,10.73
2023-05-14T23:10:08.736Z,9.18
2023-05-14T23:12:35.960Z,10.10
2023-05-14T23:15:03.315Z,11.20
2023-05-14T23:17:30.241Z,10.98
2023-05-14T23:19:57.138Z,10.77
2023-05-14T23:22:24.345Z,11.68
2023-05-14T23:24:51.176Z,11.35
2023-05-14T23:27:18.422Z,11.50
2023-05-14T23:29:45.600Z,10.93
2023-05-14T23:32:12.988Z,10.88
2023-05-14T23:34:40.224Z,10.95
2023-05-14T23:37:07.680Z,10.82
2023-05-14T23:39:34.997Z,10.50
2023-05-14T23:42:02.218Z,10.90
2023-05-14T23:44:29.017Z,11.15
2023-05-14T23:46:56.370Z,10.98
2023-05-14T23:49:23.580Z,10.88
2023-05-14T23:51:50.913Z,11.63
2023-05-14T23:54:17.704Z,11.13
2023-05-14T23:56:45.018Z,12.38
2023-05-14T23:59:12.399Z,13.23
